sensor_id;sensor_type;location;lat;lon;timestamp;P1;durP1;ratioP1;P2;durP2;ratioP2
3943;SDS011;1986;52.546;13.428;2023-04-25T00:00:53;15.27;;;14.47;;
3943;SDS011;1986;52.546;13.428;2023-04-25T00:03:24;14.50;;;13.90;;
3943;SDS011;1986;52.546;13.428;2023-04-25T00:05:51;14.87;;;14.27;;
3943;SDS011;1986;52.546;13.428;2023-04-25T00:08:18;13.67;;;13.17;;
3943;SDS011;1986;52.546;13.428;2023-04-25T00:10:45;14.50;;;13.80;;
3943;SDS011;1986;52.546;13.428;2023-04-25T00:13:13;13.77;;;13.27;;
3943;SDS011;1986;52.546;13.428;2023-04-25T00:15:42;14.27;;;13.63;;
3943;SDS011;1986;52.546;13.428;2023-04-25T00:18:11;15.30;;;14.50;;
3943;SDS011;1986;52.546;13.428;2023-04-25T00:20:39;14.90;;;13.77;;
3943;SDS011;1986;52.546;13.428;2023-04-25T00:23:11;15.10;;;14.40;;
3943;SDS011;1986;52.546;13.428;2023-04-25T00:25:42;16.37;;;15.30;;
3943;SDS011;1986;52.546;13.428;2023-04-25T00:28:09;15.60;;;14.70;;
3943;SDS011;1986;52.546;13.428;2023-04-25T00:30:36;15.30;;;14.40;;
3943;SDS011;1986;52.546;13.428;2023-04-25T00:33:03;15.40;;;14.60;;
3943;SDS011;1986;52.546;13.428;2023-04-25T00:35:30;15.80;;;15.00;;
3943;SDS011;1986;52.546;13.428;2023-04-25T00:37:59;15.73;;;14.93;;
3943;SDS011;1986;52.546;13.428;2023-04-25T00:40:26;14.80;;;14.20;;
3943;SDS011;1986;52.546;13.428;2023-04-25T00:42:53;14.20;;;13.70;;
3943;SDS011;1986;52.546;13.428;2023-04-25T00:45:20;14.53;;;14.03;;
3943;SDS011;1986;52.546;13.428;2023-04-25T00:47:47;15.67;;;14.77;;
3943;SDS011;1986;52.546;13.428;2023-04-25T00:50:14;16.13;;;14.90;;
3943;SDS011;1986;52.546;13.428;2023-04-25T00:52:43;14.67;;;14.07;;
3943;SDS011;1986;52.546;13.428;2023-04-25T00:55:12;16.30;;;15.40;;
3943;SDS011;1986;52.546;13.428;2023-04-25T00:57:40;15.07;;;14.37;;
3943;SDS011;1986;52.546;13.428;2023-04-25T01:00:09;16.07;;;15.17;;
3943;SDS011;1986;52.546;13.428;2023-04-25T01:02:38;15.30;;;14.60;;
3943;SDS011;1986;52.546;13.428;2023-04-25T01:05:06;15.47;;;14.50;;
3943;SDS011;1986;52.546;13.428;2023-04-25T01:07:34;15.93;;;15.00;;
3943;SDS011;1986;52.546;13.428;2023-04-25T01:10:01;14.63;;;13.90;;
3943;SDS011;1986;52.546;13.428;2023-04-25T01:12:31;14.30;;;13.60;;
3943;SDS011;1986;52.546;13.428;2023-04-25T01:14:58;17.70;;;16.30;;
3943;SDS011;1986;52.546;13.428;2023-04-25T01:17:25;16.10;;;15.30;;
3943;SDS011;1986;52.546;13.428;2023-04-25T01:19:53;14.90;;;14.27;;
3943;SDS011;1986;52.546;13.428;2023-04-25T01:22:22;15.73;;;15.00;;
3943;SDS011;1986;52.546;13.428;2023-04-25T01:24:49;15.10;;;14.40;;
3943;SDS011;1986;52.546;13.428;2023-04-25T01:27:28;16.43;;;15.30;;
3943;SDS011;1986;52.546;13.428;2023-04-25T01:29:56;15.10;;;14.40;;
3943;SDS011;1986;52.546;13.428;2023-04-25T01:32:23;15.50;;;14.20;;
3943;SDS011;1986;52.546;13.428;2023-04-25T01:34:50;16.80;;;15.80;;
3943;SDS011;1986;52.546;13.428;2023-04-25T01:37:17;14.87;;;14.07;;
3943;SDS011;1986;52.546;13.428;2023-04-25T01:39:45;15.33;;;14.63;;
3943;SDS011;1986;52.546;13.428;2023-04-25T01:42:13;16.63;;;15.47;;
3943;SDS011;1986;52.546;13.428;2023-04-25T01:44:41;15.47;;;14.20;;
3943;SDS011;1986;52.546;13.428;2023-04-25T01:47:08;14.43;;;13.70;;
3943;SDS011;1986;52.546;13.428;2023-04-25T01:49:34;15.57;;;14.53;;
3943;SDS011;1986;52.546;13.428;2023-04-25T01:52:01;16.27;;;14.67;;
3943;SDS011;1986;52.546;13.428;2023-04-25T01:54:28;16.40;;;15.40;;
3943;SDS011;1986;52.546;13.428;2023-04-25T01:56:58;14.77;;;14.07;;
3943;SDS011;1986;52.546;13.428;2023-04-25T01:59:25;15.20;;;14.23;;
3943;SDS011;1986;52.546;13.428;2023-04-25T02:01:52;15.13;;;14.43;;
3943;SDS011;1986;52.546;13.428;2023-04-25T02:04:19;15.13;;;14.03;;
3943;SDS011;1986;52.546;13.428;2023-04-25T02:06:46;14.20;;;13.60;;
3943;SDS011;1986;52.546;13.428;2023-04-25T02:09:13;14.10;;;13.40;;
3943;SDS011;1986;52.546;13.428;2023-04-25T02:11:39;14.40;;;13.80;;
3943;SDS011;1986;52.546;13.428;2023-04-25T02:14:08;36.20;;;14.93;;
3943;SDS011;1986;52.546;13.428;2023-04-25T02:16:35;15.13;;;14.30;;
3943;SDS011;1986;52.546;13.428;2023-04-25T02:19:02;16.50;;;15.50;;
3943;SDS011;1986;52.546;13.428;2023-04-25T02:21:29;15.30;;;14.53;;
3943;SDS011;1986;52.546;13.428;2023-04-25T02:23:56;18.00;;;16.50;;
3943;SDS011;1986;52.546;13.428;2023-04-25T02:26:24;16.50;;;15.40;;
3943;SDS011;1986;52.546;13.428;2023-04-25T02:28:51;16.17;;;15.07;;
3943;SDS011;1986;52.546;13.428;2023-04-25T02:31:19;16.77;;;15.07;;
3943;SDS011;1986;52.546;13.428;2023-04-25T02:33:48;16.07;;;15.00;;
3943;SDS011;1986;52.546;13.428;2023-04-25T02:36:16;14.73;;;14.03;;
3943;SDS011;1986;52.546;13.428;2023-04-25T02:38:43;17.90;;;16.43;;
3943;SDS011;1986;52.546;13.428;2023-04-25T02:41:10;18.47;;;16.63;;
3943;SDS011;1986;52.546;13.428;2023-04-25T02:43:37;13.97;;;13.47;;
3943;SDS011;1986;52.546;13.428;2023-04-25T02:46:04;17.17;;;15.93;;
3943;SDS011;1986;52.546;13.428;2023-04-25T02:48:34;16.83;;;15.73;;
3943;SDS011;1986;52.546;13.428;2023-04-25T02:51:02;13.70;;;13.20;;
3943;SDS011;1986;52.546;13.428;2023-04-25T02:53:29;14.90;;;14.10;;
3943;SDS011;1986;52.546;13.428;2023-04-25T02:55:56;15.20;;;14.40;;
3943;SDS011;1986;52.546;13.428;2023-04-25T02:58:24;15.33;;;14.50;;
3943;SDS011;1986;52.546;13.428;2023-04-25T03:00:51;14.20;;;13.60;;
3943;SDS011;1986;52.546;13.428;2023-04-25T03:03:18;15.93;;;14.90;;
3943;SDS011;1986;52.546;13.428;2023-04-25T03:05:48;19.40;;;15.50;;
3943;SDS011;1986;52.546;13.428;2023-04-25T03:08:15;14.57;;;13.87;;
3943;SDS011;1986;52.546;13.428;2023-04-25T03:10:42;15.83;;;14.50;;
3943;SDS011;1986;52.546;13.428;2023-04-25T03:13:09;15.50;;;14.50;;
3943;SDS011;1986;52.546;13.428;2023-04-25T03:15:38;15.90;;;14.47;;
3943;SDS011;1986;52.546;13.428;2023-04-25T03:18:06;16.00;;;15.20;;
3943;SDS011;1986;52.546;13.428;2023-04-25T03:20:44;15.37;;;14.50;;
3943;SDS011;1986;52.546;13.428;2023-04-25T03:23:13;16.00;;;14.80;;
3943;SDS011;1986;52.546;13.428;2023-04-25T03:25:40;13.80;;;13.30;;
3943;SDS011;1986;52.546;13.428;2023-04-25T03:28:07;14.87;;;13.93;;
3943;SDS011;1986;52.546;13.428;2023-04-25T03:30:34;14.90;;;14.13;;
3943;SDS011;1986;52.546;13.428;2023-04-25T03:33:01;16.17;;;14.90;;
3943;SDS011;1986;52.546;13.428;2023-04-25T03:35:27;13.37;;;12.87;;
3943;SDS011;1986;52.546;13.428;2023-04-25T03:37:55;17.93;;;16.73;;
3943;SDS011;1986;52.546;13.428;2023-04-25T03:40:23;16.13;;;15.07;;
3943;SDS011;1986;52.546;13.428;2023-04-25T03:42:50;14.13;;;13.50;;
3943;SDS011;1986;52.546;13.428;2023-04-25T03:45:17;16.60;;;15.33;;
3943;SDS011;1986;52.546;13.428;2023-04-25T03:47:44;15.60;;;14.57;;
3943;SDS011;1986;52.546;13.428;2023-04-25T03:50:25;15.27;;;14.30;;
3943;SDS011;1986;52.546;13.428;2023-04-25T03:52:52;16.53;;;15.23;;
3943;SDS011;1986;52.546;13.428;2023-04-25T03:55:19;15.93;;;14.60;;
3943;SDS011;1986;52.546;13.428;2023-04-25T03:57:50;15.50;;;14.30;;
3943;SDS011;1986;52.546;13.428;2023-04-25T04:00:17;16.07;;;15.10;;
3943;SDS011;1986;52.546;13.428;2023-04-25T04:02:44;14.17;;;13.67;;
3943;SDS011;1986;52.546;13.428;2023-04-25T04:05:11;14.60;;;14.00;;
3943;SDS011;1986;52.546;13.428;2023-04-25T04:07:38;16.87;;;15.57;;
3943;SDS011;1986;52.546;13.428;2023-04-25T04:10:08;16.47;;;15.43;;
3943;SDS011;1986;52.546;13.428;2023-04-25T04:12:35;18.80;;;17.10;;
3943;SDS011;1986;52.546;13.428;2023-04-25T04:15:04;16.13;;;15.03;;
3943;SDS011;1986;52.546;13.428;2023-04-25T04:17:31;15.37;;;14.47;;
3943;SDS011;1986;52.546;13.428;2023-04-25T04:20:00;16.60;;;15.37;;
3943;SDS011;1986;52.546;13.428;2023-04-25T04:22:28;16.73;;;15.60;;
3943;SDS011;1986;52.546;13.428;2023-04-25T04:24:56;14.60;;;13.90;;
3943;SDS011;1986;52.546;13.428;2023-04-25T04:27:23;14.63;;;14.03;;
3943;SDS011;1986;52.546;13.428;2023-04-25T04:29:50;15.30;;;14.40;;
3943;SDS011;1986;52.546;13.428;2023-04-25T04:32:19;16.40;;;15.13;;
3943;SDS011;1986;52.546;13.428;2023-04-25T04:34:48;14.53;;;13.93;;
3943;SDS011;1986;52.546;13.428;2023-04-25T04:37:17;18.10;;;17.00;;
3943;SDS011;1986;52.546;13.428;2023-04-25T04:39:44;20.73;;;15.80;;
3943;SDS011;1986;52.546;13.428;2023-04-25T04:42:12;16.70;;;15.70;;
3943;SDS011;1986;52.546;13.428;2023-04-25T04:44:39;16.13;;;14.90;;
3943;SDS011;1986;52.546;13.428;2023-04-25T04:47:06;16.10;;;15.20;;
3943;SDS011;1986;52.546;13.428;2023-04-25T04:49:37;17.70;;;16.00;;
3943;SDS011;1986;52.546;13.428;2023-04-25T04:52:06;15.83;;;15.13;;
3943;SDS011;1986;52.546;13.428;2023-04-25T04:54:37;15.13;;;14.50;;
3943;SDS011;1986;52.546;13.428;2023-04-25T04:57:19;16.60;;;15.60;;
3943;SDS011;1986;52.546;13.428;2023-04-25T04:59:46;15.57;;;14.67;;
3943;SDS011;1986;52.546;13.428;2023-04-25T05:02:15;15.30;;;14.57;;
3943;SDS011;1986;52.546;13.428;2023-04-25T05:04:43;16.90;;;15.93;;
3943;SDS011;1986;52.546;13.428;2023-04-25T05:07:10;37.93;;;15.00;;
3943;SDS011;1986;52.546;13.428;2023-04-25T05:09:55;15.10;;;14.50;;
3943;SDS011;1986;52.546;13.428;2023-04-25T05:12:23;17.80;;;16.70;;
3943;SDS011;1986;52.546;13.428;2023-04-25T05:14:50;18.07;;;16.00;;
3943;SDS011;1986;52.546;13.428;2023-04-25T05:17:17;16.43;;;15.60;;
3943;SDS011;1986;52.546;13.428;2023-04-25T05:19:49;17.27;;;15.93;;
3943;SDS011;1986;52.546;13.428;2023-04-25T05:22:17;18.87;;;17.07;;
3943;SDS011;1986;52.546;13.428;2023-04-25T05:24:44;16.10;;;15.30;;
3943;SDS011;1986;52.546;13.428;2023-04-25T05:27:13;18.97;;;17.63;;
3943;SDS011;1986;52.546;13.428;2023-04-25T05:29:42;19.20;;;17.67;;
3943;SDS011;1986;52.546;13.428;2023-04-25T05:32:09;16.87;;;15.90;;
3943;SDS011;1986;52.546;13.428;2023-04-25T05:34:36;16.60;;;15.90;;
3943;SDS011;1986;52.546;13.428;2023-04-25T05:37:05;16.67;;;15.60;;
3943;SDS011;1986;52.546;13.428;2023-04-25T05:39:32;18.23;;;17.13;;
3943;SDS011;1986;52.546;13.428;2023-04-25T05:41:59;18.17;;;16.80;;
3943;SDS011;1986;52.546;13.428;2023-04-25T05:44:26;19.77;;;16.93;;
3943;SDS011;1986;52.546;13.428;2023-04-25T05:46:54;17.40;;;16.10;;
3943;SDS011;1986;52.546;13.428;2023-04-25T05:49:21;17.07;;;15.90;;
3943;SDS011;1986;52.546;13.428;2023-04-25T05:51:49;18.70;;;17.50;;
3943;SDS011;1986;52.546;13.428;2023-04-25T05:54:18;20.23;;;18.30;;
3943;SDS011;1986;52.546;13.428;2023-04-25T05:56:45;20.27;;;18.27;;
3943;SDS011;1986;52.546;13.428;2023-04-25T05:59:12;17.57;;;16.30;;
3943;SDS011;1986;52.546;13.428;2023-04-25T06:01:39;17.43;;;16.23;;
3943;SDS011;1986;52.546;13.428;2023-04-25T06:04:08;16.23;;;15.23;;
3943;SDS011;1986;52.546;13.428;2023-04-25T06:06:35;15.30;;;14.70;;
3943;SDS011;1986;52.546;13.428;2023-04-25T06:09:02;19.60;;;18.10;;
3943;SDS011;1986;52.546;13.428;2023-04-25T06:11:32;18.50;;;17.27;;
3943;SDS011;1986;52.546;13.428;2023-04-25T06:13:59;18.37;;;16.67;;
3943;SDS011;1986;52.546;13.428;2023-04-25T06:16:26;14.87;;;14.27;;
3943;SDS011;1986;52.546;13.428;2023-04-25T06:18:53;18.47;;;17.07;;
3943;SDS011;1986;52.546;13.428;2023-04-25T06:21:20;19.07;;;17.57;;
3943;SDS011;1986;52.546;13.428;2023-04-25T06:23:47;17.80;;;16.90;;
3943;SDS011;1986;52.546;13.428;2023-04-25T06:26:14;18.50;;;17.00;;
3943;SDS011;1986;52.546;13.428;2023-04-25T06:28:42;17.63;;;16.43;;
3943;SDS011;1986;52.546;13.428;2023-04-25T06:31:09;16.07;;;14.90;;
3943;SDS011;1986;52.546;13.428;2023-04-25T06:33:36;17.47;;;16.43;;
3943;SDS011;1986;52.546;13.428;2023-04-25T06:36:03;20.13;;;18.13;;
3943;SDS011;1986;52.546;13.428;2023-04-25T06:38:30;19.13;;;17.13;;
3943;SDS011;1986;52.546;13.428;2023-04-25T06:40:58;16.87;;;15.97;;
3943;SDS011;1986;52.546;13.428;2023-04-25T06:43:25;16.10;;;15.13;;
3943;SDS011;1986;52.546;13.428;2023-04-25T06:45:53;18.37;;;17.17;;
3943;SDS011;1986;52.546;13.428;2023-04-25T06:48:23;15.73;;;15.03;;
3943;SDS011;1986;52.546;13.428;2023-04-25T06:50:50;16.20;;;15.30;;
3943;SDS011;1986;52.546;13.428;2023-04-25T06:53:17;16.00;;;15.10;;
3943;SDS011;1986;52.546;13.428;2023-04-25T06:55:44;18.03;;;16.07;;
3943;SDS011;1986;52.546;13.428;2023-04-25T06:58:11;16.70;;;15.70;;
3943;SDS011;1986;52.546;13.428;2023-04-25T07:00:38;18.17;;;16.97;;
3943;SDS011;1986;52.546;13.428;2023-04-25T07:03:06;17.00;;;15.20;;
3943;SDS011;1986;52.546;13.428;2023-04-25T07:05:33;15.70;;;14.70;;
3943;SDS011;1986;52.546;13.428;2023-04-25T07:08:00;15.13;;;14.43;;
3943;SDS011;1986;52.546;13.428;2023-04-25T07:10:28;15.63;;;14.70;;
3943;SDS011;1986;52.546;13.428;2023-04-25T07:12:54;16.87;;;15.97;;
3943;SDS011;1986;52.546;13.428;2023-04-25T07:15:21;16.57;;;15.73;;
3943;SDS011;1986;52.546;13.428;2023-04-25T07:17:48;15.00;;;14.30;;
3943;SDS011;1986;52.546;13.428;2023-04-25T07:20:17;15.50;;;14.17;;
3943;SDS011;1986;52.546;13.428;2023-04-25T07:22:44;14.50;;;13.80;;
3943;SDS011;1986;52.546;13.428;2023-04-25T07:25:11;15.97;;;14.97;;
3943;SDS011;1986;52.546;13.428;2023-04-25T07:27:38;15.33;;;14.43;;
3943;SDS011;1986;52.546;13.428;2023-04-25T07:30:06;29.40;;;16.17;;
3943;SDS011;1986;52.546;13.428;2023-04-25T07:32:34;16.87;;;15.60;;
3943;SDS011;1986;52.546;13.428;2023-04-25T07:35:01;15.20;;;14.30;;
3943;SDS011;1986;52.546;13.428;2023-04-25T07:37:29;17.80;;;16.17;;
3943;SDS011;1986;52.546;13.428;2023-04-25T07:39:57;14.50;;;14.00;;
3943;SDS011;1986;52.546;13.428;2023-04-25T07:42:23;17.30;;;16.30;;
3943;SDS011;1986;52.546;13.428;2023-04-25T07:44:51;22.63;;;17.80;;
3943;SDS011;1986;52.546;13.428;2023-04-25T07:47:17;18.67;;;16.83;;
3943;SDS011;1986;52.546;13.428;2023-04-25T07:49:45;16.47;;;15.67;;
3943;SDS011;1986;52.546;13.428;2023-04-25T07:52:12;18.50;;;16.80;;
3943;SDS011;1986;52.546;13.428;2023-04-25T07:54:40;17.80;;;16.80;;
3943;SDS011;1986;52.546;13.428;2023-04-25T07:57:07;17.20;;;16.33;;
3943;SDS011;1986;52.546;13.428;2023-04-25T07:59:34;19.73;;;17.50;;
3943;SDS011;1986;52.546;13.428;2023-04-25T08:02:01;17.20;;;16.27;;
3943;SDS011;1986;52.546;13.428;2023-04-25T08:04:28;17.33;;;15.70;;
3943;SDS011;1986;52.546;13.428;2023-04-25T08:06:55;17.40;;;16.40;;
3943;SDS011;1986;52.546;13.428;2023-04-25T08:09:22;38.33;;;18.97;;
3943;SDS011;1986;52.546;13.428;2023-04-25T08:11:51;17.33;;;16.53;;
3943;SDS011;1986;52.546;13.428;2023-04-25T08:14:18;17.90;;;16.60;;
3943;SDS011;1986;52.546;13.428;2023-04-25T08:16:45;26.73;;;17.20;;
3943;SDS011;1986;52.546;13.428;2023-04-25T08:19:12;21.73;;;19.43;;
3943;SDS011;1986;52.546;13.428;2023-04-25T08:21:39;20.00;;;17.97;;
3943;SDS011;1986;52.546;13.428;2023-04-25T08:24:06;19.23;;;17.73;;
3943;SDS011;1986;52.546;13.428;2023-04-25T08:26:33;18.53;;;17.23;;
3943;SDS011;1986;52.546;13.428;2023-04-25T08:29:03;19.37;;;17.50;;
3943;SDS011;1986;52.546;13.428;2023-04-25T08:31:31;20.40;;;18.77;;
3943;SDS011;1986;52.546;13.428;2023-04-25T08:33:58;19.07;;;17.97;;
3943;SDS011;1986;52.546;13.428;2023-04-25T08:36:25;18.80;;;17.67;;
3943;SDS011;1986;52.546;13.428;2023-04-25T08:38:53;18.30;;;16.67;;
3943;SDS011;1986;52.546;13.428;2023-04-25T08:41:20;18.97;;;17.83;;
3943;SDS011;1986;52.546;13.428;2023-04-25T08:43:48;21.90;;;18.60;;
3943;SDS011;1986;52.546;13.428;2023-04-25T08:46:17;21.20;;;19.40;;
3943;SDS011;1986;52.546;13.428;2023-04-25T08:48:45;19.80;;;18.50;;
3943;SDS011;1986;52.546;13.428;2023-04-25T08:51:14;18.83;;;17.57;;
3943;SDS011;1986;52.546;13.428;2023-04-25T08:53:47;20.60;;;18.90;;
3943;SDS011;1986;52.546;13.428;2023-04-25T08:56:16;18.93;;;17.93;;
3943;SDS011;1986;52.546;13.428;2023-04-25T08:58:47;18.83;;;17.83;;
3943;SDS011;1986;52.546;13.428;2023-04-25T09:01:16;19.57;;;18.10;;
3943;SDS011;1986;52.546;13.428;2023-04-25T09:03:44;22.00;;;19.23;;
3943;SDS011;1986;52.546;13.428;2023-04-25T09:06:12;19.33;;;18.23;;
3943;SDS011;1986;52.546;13.428;2023-04-25T09:08:41;23.27;;;21.57;;
3943;SDS011;1986;52.546;13.428;2023-04-25T09:11:08;20.23;;;19.13;;
3943;SDS011;1986;52.546;13.428;2023-04-25T09:13:35;19.10;;;18.07;;
3943;SDS011;1986;52.546;13.428;2023-04-25T09:16:02;23.30;;;21.20;;
3943;SDS011;1986;52.546;13.428;2023-04-25T09:18:31;20.83;;;19.70;;
3943;SDS011;1986;52.546;13.428;2023-04-25T09:21:04;22.03;;;20.20;;
3943;SDS011;1986;52.546;13.428;2023-04-25T09:23:38;20.83;;;19.63;;
3943;SDS011;1986;52.546;13.428;2023-04-25T09:26:06;27.50;;;20.47;;
3943;SDS011;1986;52.546;13.428;2023-04-25T09:28:34;21.93;;;19.70;;
3943;SDS011;1986;52.546;13.428;2023-04-25T09:31:02;20.10;;;19.10;;
3943;SDS011;1986;52.546;13.428;2023-04-25T09:33:31;23.03;;;20.93;;
3943;SDS011;1986;52.546;13.428;2023-04-25T09:36:04;31.10;;;20.87;;
3943;SDS011;1986;52.546;13.428;2023-04-25T09:38:33;21.60;;;19.80;;
3943;SDS011;1986;52.546;13.428;2023-04-25T09:41:06;23.50;;;21.10;;
3943;SDS011;1986;52.546;13.428;2023-04-25T09:43:34;21.87;;;20.27;;
3943;SDS011;1986;52.546;13.428;2023-04-25T09:46:00;22.00;;;20.50;;
3943;SDS011;1986;52.546;13.428;2023-04-25T09:48:28;23.50;;;21.70;;
3943;SDS011;1986;52.546;13.428;2023-04-25T09:51:07;23.70;;;21.87;;
3943;SDS011;1986;52.546;13.428;2023-04-25T09:53:36;23.87;;;22.07;;
3943;SDS011;1986;52.546;13.428;2023-04-25T09:56:06;23.77;;;22.10;;
3943;SDS011;1986;52.546;13.428;2023-04-25T09:58:34;24.17;;;21.90;;
3943;SDS011;1986;52.546;13.428;2023-04-25T10:01:03;22.70;;;21.30;;
3943;SDS011;1986;52.546;13.428;2023-04-25T10:03:33;23.93;;;21.47;;
3943;SDS011;1986;52.546;13.428;2023-04-25T10:06:01;22.33;;;20.83;;
3943;SDS011;1986;52.546;13.428;2023-04-25T10:08:31;28.00;;;23.33;;
3943;SDS011;1986;52.546;13.428;2023-04-25T10:10:59;25.27;;;22.83;;
3943;SDS011;1986;52.546;13.428;2023-04-25T10:13:28;24.33;;;22.63;;
3943;SDS011;1986;52.546;13.428;2023-04-25T10:15:56;24.70;;;22.97;;
3943;SDS011;1986;52.546;13.428;2023-04-25T10:18:24;24.47;;;22.70;;
3943;SDS011;1986;52.546;13.428;2023-04-25T10:20:53;24.53;;;22.70;;
3943;SDS011;1986;52.546;13.428;2023-04-25T10:23:21;24.30;;;22.43;;
3943;SDS011;1986;52.546;13.428;2023-04-25T10:25:50;24.60;;;22.80;;
3943;SDS011;1986;52.546;13.428;2023-04-25T10:28:18;25.57;;;22.97;;
3943;SDS011;1986;52.546;13.428;2023-04-25T10:30:58;24.60;;;22.90;;
3943;SDS011;1986;52.546;13.428;2023-04-25T10:33:29;24.10;;;22.50;;
3943;SDS011;1986;52.546;13.428;2023-04-25T10:36:08;25.57;;;23.47;;
3943;SDS011;1986;52.546;13.428;2023-04-25T10:38:36;24.20;;;22.50;;
3943;SDS011;1986;52.546;13.428;2023-04-25T10:41:05;26.77;;;24.60;;
3943;SDS011;1986;52.546;13.428;2023-04-25T10:43:34;25.10;;;23.40;;
3943;SDS011;1986;52.546;13.428;2023-04-25T10:48:43;25.17;;;23.17;;
3943;SDS011;1986;52.546;13.428;2023-04-25T10:51:16;24.80;;;23.10;;
3943;SDS011;1986;52.546;13.428;2023-04-25T10:53:44;25.53;;;23.63;;
3943;SDS011;1986;52.546;13.428;2023-04-25T10:56:16;26.37;;;23.93;;
3943;SDS011;1986;52.546;13.428;2023-04-25T10:58:45;25.80;;;24.00;;
3943;SDS011;1986;52.546;13.428;2023-04-25T11:01:13;26.20;;;24.30;;
3943;SDS011;1986;52.546;13.428;2023-04-25T11:03:41;25.90;;;24.10;;
3943;SDS011;1986;52.546;13.428;2023-04-25T11:06:12;27.30;;;24.87;;
3943;SDS011;1986;52.546;13.428;2023-04-25T11:08:47;25.80;;;23.80;;
3943;SDS011;1986;52.546;13.428;2023-04-25T11:11:17;25.53;;;23.63;;
3943;SDS011;1986;52.546;13.428;2023-04-25T11:13:47;27.03;;;24.87;;
3943;SDS011;1986;52.546;13.428;2023-04-25T11:16:15;27.10;;;24.60;;
3943;SDS011;1986;52.546;13.428;2023-04-25T11:18:42;26.93;;;24.10;;
3943;SDS011;1986;52.546;13.428;2023-04-25T11:21:09;25.50;;;23.60;;
3943;SDS011;1986;52.546;13.428;2023-04-25T11:23:36;24.50;;;22.80;;
3943;SDS011;1986;52.546;13.428;2023-04-25T11:26:03;25.73;;;23.27;;
3943;SDS011;1986;52.546;13.428;2023-04-25T11:28:32;25.00;;;23.20;;
3943;SDS011;1986;52.546;13.428;2023-04-25T11:31:02;24.50;;;22.60;;
3943;SDS011;1986;52.546;13.428;2023-04-25T11:33:30;25.53;;;23.70;;
3943;SDS011;1986;52.546;13.428;2023-04-25T11:35:57;25.30;;;23.30;;
3943;SDS011;1986;52.546;13.428;2023-04-25T11:38:24;26.30;;;23.93;;
3943;SDS011;1986;52.546;13.428;2023-04-25T11:40:52;25.40;;;23.40;;
3943;SDS011;1986;52.546;13.428;2023-04-25T11:43:20;24.63;;;22.83;;
3943;SDS011;1986;52.546;13.428;2023-04-25T11:45:49;28.23;;;23.80;;
3943;SDS011;1986;52.546;13.428;2023-04-25T11:48:17;25.83;;;23.93;;
3943;SDS011;1986;52.546;13.428;2023-04-25T11:50:45;25.13;;;23.03;;
3943;SDS011;1986;52.546;13.428;2023-04-25T11:53:12;26.60;;;24.33;;
3943;SDS011;1986;52.546;13.428;2023-04-25T11:55:39;25.40;;;23.53;;
3943;SDS011;1986;52.546;13.428;2023-04-25T11:58:07;24.60;;;22.70;;
3943;SDS011;1986;52.546;13.428;2023-04-25T12:00:34;26.20;;;24.40;;
3943;SDS011;1986;52.546;13.428;2023-04-25T12:03:03;26.10;;;24.33;;
3943;SDS011;1986;52.546;13.428;2023-04-25T12:05:30;24.83;;;23.30;;
3943;SDS011;1986;52.546;13.428;2023-04-25T12:07:58;24.67;;;23.07;;
3943;SDS011;1986;52.546;13.428;2023-04-25T12:10:37;25.20;;;23.50;;
3943;SDS011;1986;52.546;13.428;2023-04-25T12:13:17;25.80;;;23.80;;
3943;SDS011;1986;52.546;13.428;2023-04-25T12:15:45;26.17;;;23.97;;
3943;SDS011;1986;52.546;13.428;2023-04-25T12:18:14;25.10;;;23.20;;
3943;SDS011;1986;52.546;13.428;2023-04-25T12:20:41;26.30;;;23.83;;
3943;SDS011;1986;52.546;13.428;2023-04-25T12:23:08;28.07;;;25.50;;
3943;SDS011;1986;52.546;13.428;2023-04-25T12:25:37;27.00;;;24.87;;
3943;SDS011;1986;52.546;13.428;2023-04-25T12:28:12;26.20;;;24.33;;
3943;SDS011;1986;52.546;13.428;2023-04-25T12:33:28;26.57;;;24.77;;
3943;SDS011;1986;52.546;13.428;2023-04-25T12:35:56;26.53;;;24.70;;
3943;SDS011;1986;52.546;13.428;2023-04-25T12:38:24;28.77;;;26.00;;
3943;SDS011;1986;52.546;13.428;2023-04-25T12:40:52;27.50;;;25.60;;
3943;SDS011;1986;52.546;13.428;2023-04-25T12:43:19;26.77;;;25.07;;
3943;SDS011;1986;52.546;13.428;2023-04-25T12:45:47;26.77;;;24.70;;
3943;SDS011;1986;52.546;13.428;2023-04-25T12:48:17;27.67;;;25.33;;
3943;SDS011;1986;52.546;13.428;2023-04-25T12:50:46;28.67;;;26.43;;
3943;SDS011;1986;52.546;13.428;2023-04-25T12:53:14;26.67;;;24.97;;
3943;SDS011;1986;52.546;13.428;2023-04-25T12:55:41;26.60;;;24.80;;
3943;SDS011;1986;52.546;13.428;2023-04-25T12:58:11;26.53;;;24.47;;
3943;SDS011;1986;52.546;13.428;2023-04-25T13:00:37;26.53;;;24.53;;
3943;SDS011;1986;52.546;13.428;2023-04-25T13:03:04;25.00;;;23.30;;
3943;SDS011;1986;52.546;13.428;2023-04-25T13:05:31;25.60;;;23.60;;
3943;SDS011;1986;52.546;13.428;2023-04-25T13:08:00;26.70;;;24.30;;
3943;SDS011;1986;52.546;13.428;2023-04-25T13:10:27;26.27;;;24.50;;
3943;SDS011;1986;52.546;13.428;2023-04-25T13:12:54;25.90;;;24.20;;
3943;SDS011;1986;52.546;13.428;2023-04-25T13:15:21;26.53;;;24.43;;
3943;SDS011;1986;52.546;13.428;2023-04-25T13:17:48;29.43;;;26.93;;
3943;SDS011;1986;52.546;13.428;2023-04-25T13:20:15;28.17;;;25.73;;
3943;SDS011;1986;52.546;13.428;2023-04-25T13:22:44;29.70;;;26.93;;
3943;SDS011;1986;52.546;13.428;2023-04-25T13:25:13;28.63;;;26.37;;
3943;SDS011;1986;52.546;13.428;2023-04-25T13:27:40;27.93;;;25.60;;
3943;SDS011;1986;52.546;13.428;2023-04-25T13:30:09;27.50;;;25.50;;
3943;SDS011;1986;52.546;13.428;2023-04-25T13:32:36;27.80;;;25.83;;
3943;SDS011;1986;52.546;13.428;2023-04-25T13:35:04;30.10;;;25.80;;
3943;SDS011;1986;52.546;13.428;2023-04-25T13:37:32;26.23;;;24.10;;
3943;SDS011;1986;52.546;13.428;2023-04-25T13:40:05;27.70;;;25.50;;
3943;SDS011;1986;52.546;13.428;2023-04-25T13:42:36;26.50;;;24.27;;
3943;SDS011;1986;52.546;13.428;2023-04-25T13:45:04;26.30;;;24.40;;
3943;SDS011;1986;52.546;13.428;2023-04-25T13:47:32;26.77;;;24.33;;
3943;SDS011;1986;52.546;13.428;2023-04-25T13:49:59;27.73;;;24.53;;
3943;SDS011;1986;52.546;13.428;2023-04-25T13:52:28;25.17;;;23.33;;
3943;SDS011;1986;52.546;13.428;2023-04-25T13:54:55;26.03;;;23.93;;
3943;SDS011;1986;52.546;13.428;2023-04-25T13:57:22;24.60;;;22.90;;
3943;SDS011;1986;52.546;13.428;2023-04-25T13:59:50;24.67;;;22.97;;
3943;SDS011;1986;52.546;13.428;2023-04-25T14:02:17;25.20;;;23.37;;
3943;SDS011;1986;52.546;13.428;2023-04-25T14:04:44;27.13;;;24.73;;
3943;SDS011;1986;52.546;13.428;2023-04-25T14:07:11;25.53;;;23.77;;
3943;SDS011;1986;52.546;13.428;2023-04-25T14:09:41;25.67;;;23.97;;
3943;SDS011;1986;52.546;13.428;2023-04-25T14:12:08;27.27;;;25.27;;
3943;SDS011;1986;52.546;13.428;2023-04-25T14:14:35;28.10;;;25.67;;
3943;SDS011;1986;52.546;13.428;2023-04-25T14:17:04;28.10;;;25.90;;
3943;SDS011;1986;52.546;13.428;2023-04-25T14:19:31;27.37;;;25.27;;
3943;SDS011;1986;52.546;13.428;2023-04-25T14:21:58;27.70;;;25.60;;
3943;SDS011;1986;52.546;13.428;2023-04-25T14:24:25;25.40;;;23.67;;
3943;SDS011;1986;52.546;13.428;2023-04-25T14:26:52;29.27;;;26.27;;
3943;SDS011;1986;52.546;13.428;2023-04-25T14:29:20;27.93;;;26.00;;
3943;SDS011;1986;52.546;13.428;2023-04-25T14:31:47;28.97;;;26.33;;
3943;SDS011;1986;52.546;13.428;2023-04-25T14:34:15;29.30;;;27.20;;
3943;SDS011;1986;52.546;13.428;2023-04-25T14:36:42;29.07;;;26.27;;
3943;SDS011;1986;52.546;13.428;2023-04-25T14:39:09;28.30;;;26.23;;
3943;SDS011;1986;52.546;13.428;2023-04-25T14:41:37;28.67;;;26.57;;
3943;SDS011;1986;52.546;13.428;2023-04-25T14:44:07;28.10;;;26.10;;